Greenwich, CT

2:00 AM EDT on August 25, 2016 (GMT -0400)
KCTGREEN16 | | Change Station

Elev 50 ft 41.01 °N, 73.62 °W | Updated 17 seconds ago

Clear
Clear
72.9 °F
Feels Like 74 °F
N
8.4
Wind Variable Wind from SSW
Gusts 11.0 mph

Today
High -- | Low -- °F
--% Chance of Precip.
Yesterday
High -- | Low -- °F
Precip. -- in
Pressure 30.12 in
Visibility 10.0 miles
Clouds Clear
Heat Index 74 °F
Dew Point 66 °F
Humidity 78%
Rainfall 0.00 in
Snow Depth Not available.
6:14 AM 7:37 PM
Waning Gibbous, 49% visible
METAR KHPN 250556Z 00000KT 10SM CLR 21/17 A3014 RMK AO2 SLP200 T02110172 10239 20200 58015
Pressure 30.12 in
Visibility 10.0 miles
Clouds Clear
Heat Index 74 °F
Dew Point 66 °F
Humidity 78%
Rainfall 0.00 in
Snow Depth Not available.
6:14 AM 7:37 PM
Waning Gibbous, 49% visible
METAR KHPN 250556Z 00000KT 10SM CLR 21/17 A3014 RMK AO2 SLP200 T02110172 10239 20200 58015

10-Day Weather Forecast

Almanac

Astronomy

Aug. 25, 2016 Rise Set
Actual Time
Civil Twilight
Nautical Twilight
Astronomical Twilight
Moon
Length of Visible Light
Length of Day
Tomorrow will be .
, % of the Moon is Illuminated

Today's Extremes

State Highs State Lows

Community

WunderPhotos

Upload Photos

1,934,799 photos uploaded!

WunderBlog® & News

Nearby

Air Quality

  Air Quality AQ Index Pollutant
Not available.

Snow Depth

Station Depth Elevation

Earthquake Activity

City Distance Mag. Time & Date
Minimum magnitude displayed is 2.5.

Coastal Water Temperatures

Place Temperature

Stations

Nearby Weather Stations

Station Location Temp. Windchill Dew Point Humidity Wind Precip. Elev Updated Type
                   

Watches & Warnings

There are currently no watches in effect.